Time;durP1;ratioP1;P1;durP2;ratioP2;P2;SDS_P1;SDS_P2;PMS_P1;PMS_P2;Temp;Humidity;BMP_temperature;BMP_pressure;BME280_temperature;BME280_humidity;BME280_pressure;Samples;Min_cycle;Max_cycle;Signal;HPM_P1;HPM_P2
2022/11/14 00:01:54;;;;;;;27.38;18.45;;;;;;;5.63;100.00;101663.94;5008384;28;20062;-68
2022/11/14 00:04:19;;;;;;;26.67;17.75;;;;;;;5.66;100.00;101668.31;5009260;28;20072;-68
2022/11/14 00:06:45;;;;;;;25.38;18.50;;;;;;;5.63;100.00;101673.53;5007627;28;20034;-67
2022/11/14 00:09:10;;;;;;;24.95;17.75;;;;;;;5.53;100.00;101673.53;5008186;28;20057;-66
2022/11/14 00:11:35;;;;;;;23.80;17.73;;;;;;;5.57;100.00;101670.03;5007528;28;20034;-66
2022/11/14 00:14:01;;;;;;;28.05;17.95;;;;;;;5.61;100.00;101675.25;5007187;28;20101;-66
2022/11/14 00:16:26;;;;;;;27.33;18.08;;;;;;;5.58;100.00;101670.91;5008204;28;20041;-67
2022/11/14 00:18:52;;;;;;;26.95;17.88;;;;;;;5.51;100.00;101674.41;5008913;28;20058;-66
2022/11/14 00:21:17;;;;;;;25.17;18.02;;;;;;;5.48;100.00;101680.47;5007043;28;20030;-65
2022/11/14 00:23:43;;;;;;;29.70;18.10;;;;;;;5.42;100.00;101676.13;5008314;28;20400;-67
2022/11/14 00:26:08;;;;;;;22.98;16.60;;;;;;;5.39;100.00;101673.50;5008218;28;20042;-67
2022/11/14 00:28:33;;;;;;;27.67;17.83;;;;;;;5.38;100.00;101668.25;5008259;28;20352;-68
2022/11/14 00:30:59;;;;;;;24.08;17.42;;;;;;;5.30;100.00;101660.44;5007656;28;20053;-67
2022/11/14 00:33:24;;;;;;;24.55;18.38;;;;;;;5.33;100.00;101662.19;5008177;28;20041;-67
2022/11/14 00:35:54;;;;;;;23.52;17.63;;;;;;;5.23;100.00;101659.53;5017607;28;20014;-67
2022/11/14 00:38:19;;;;;;;24.50;17.20;;;;;;;5.16;100.00;101656.06;5027370;28;20122;-67
2022/11/14 00:40:45;;;;;;;32.30;19.10;;;;;;;5.22;100.00;101656.94;5026745;28;20144;-67
2022/11/14 00:43:10;;;;;;;24.83;17.25;;;;;;;5.18;100.00;101650.84;5008009;28;20056;-65
2022/11/14 00:45:35;;;;;;;30.08;18.45;;;;;;;5.18;100.00;101645.63;5006736;28;20109;-68
2022/11/14 00:48:01;;;;;;;31.10;18.02;;;;;;;5.18;100.00;101641.25;5007115;28;20018;-66
2022/11/14 00:50:26;;;;;;;26.52;18.13;;;;;;;5.20;100.00;101643.00;5007956;28;20022;-65
2022/11/14 00:52:51;;;;;;;26.20;18.13;;;;;;;5.18;100.00;101630.78;5008179;28;20053;-67
2022/11/14 00:55:17;;;;;;;26.67;18.48;;;;;;;5.12;100.00;101637.75;5007967;28;20018;-67
2022/11/14 00:57:42;;;;;;;29.58;18.50;;;;;;;5.08;100.00;101638.63;5007611;28;20029;-68
2022/11/14 01:00:09;;;;;;;23.35;16.90;;;;;;;5.12;100.00;101637.75;5007213;28;20076;-67
2022/11/14 01:02:34;;;;;;;22.00;17.40;;;;;;;5.06;100.00;101639.47;5006605;28;20089;-67
2022/11/14 01:05:01;;;;;;;29.13;18.50;;;;;;;5.00;100.00;101631.63;5007741;28;20121;-66
2022/11/14 01:07:26;;;;;;;23.80;17.73;;;;;;;4.98;100.00;101625.53;5014459;28;20091;-66
2022/11/14 01:09:52;;;;;;;26.55;17.85;;;;;;;5.00;100.00;101630.78;5028434;28;20037;-66
2022/11/14 01:12:17;;;;;;;24.23;17.42;;;;;;;5.00;100.00;101626.41;5026855;28;20035;-67
2022/11/14 01:14:42;;;;;;;23.98;16.90;;;;;;;4.96;100.00;101622.03;5026819;28;20107;-66
2022/11/14 01:17:08;;;;;;;28.88;17.73;;;;;;;4.98;100.00;101627.28;5026556;28;20030;-67
2022/11/14 01:19:34;;;;;;;25.45;17.20;;;;;;;4.92;100.00;101617.69;5025788;28;20116;-65
2022/11/14 01:21:59;;;;;;;24.50;18.48;;;;;;;4.90;100.00;101614.19;5027026;28;20108;-66
2022/11/14 01:24:24;;;;;;;25.13;16.63;;;;;;;4.89;100.00;101620.28;5026935;28;20732;-68
2022/11/14 01:26:50;;;;;;;23.90;17.45;;;;;;;4.80;100.00;101618.53;5027279;28;20667;-67
2022/11/14 01:29:15;;;;;;;26.90;16.67;;;;;;;4.90;100.00;101608.97;5026876;28;20045;-67
2022/11/14 01:31:40;;;;;;;23.27;16.58;;;;;;;4.83;100.00;101612.44;5025000;28;20022;-67
2022/11/14 01:34:06;;;;;;;25.83;17.58;;;;;;;4.79;100.00;101607.19;5026543;28;20585;-66
2022/11/14 01:36:31;;;;;;;27.30;17.83;;;;;;;4.74;100.00;101608.06;5010228;28;20060;-65
2022/11/14 01:38:56;;;;;;;29.50;17.48;;;;;;;4.74;100.00;101597.63;5006169;28;20042;-66
2022/11/14 01:41:22;;;;;;;20.73;16.08;;;;;;;4.74;100.00;101595.00;5005967;28;20580;-67
2022/11/14 01:43:48;;;;;;;24.73;17.02;;;;;;;4.60;100.00;101590.63;5006235;28;20444;-66
2022/11/14 01:46:23;;;;;;;22.33;16.85;;;;;;;4.64;100.00;101594.13;5005695;28;20037;-66
2022/11/14 01:48:57;;;;;;;23.95;17.25;;;;;;;4.58;100.00;101591.47;5005331;28;20109;-67
2022/11/14 01:51:42;;;;;;;26.23;17.15;;;;;;;4.47;100.00;101583.59;5006875;28;20105;-67
2022/11/14 01:54:11;;;;;;;22.83;16.30;;;;;;;4.51;100.00;101580.13;5005129;28;20037;-67
2022/11/14 01:56:40;;;;;;;23.75;16.17;;;;;;;4.53;100.00;101574.06;5006407;28;20555;-66
2022/11/14 01:59:09;;;;;;;21.75;16.40;;;;;;;4.55;100.00;101579.31;5006434;28;20040;-66
2022/11/14 02:01:37;;;;;;;23.33;15.90;;;;;;;4.49;100.00;101569.69;5006357;28;20026;-67
2022/11/14 02:04:04;;;;;;;24.15;16.63;;;;;;;4.53;100.00;101562.75;5005017;28;20108;-66
2022/11/14 02:06:30;;;;;;;25.98;16.48;;;;;;;4.53;100.00;101562.75;5005588;28;20125;-67
2022/11/14 02:08:57;;;;;;;24.60;17.20;;;;;;;4.46;100.00;101555.78;5006331;28;20370;-67
2022/11/14 02:11:22;;;;;;;23.15;16.27;;;;;;;4.48;100.00;101554.06;5009897;28;20026;-66
2022/11/14 02:13:48;;;;;;;26.23;16.95;;;;;;;4.47;100.00;101547.94;5009924;28;20029;-65
2022/11/14 02:16:14;;;;;;;23.95;16.73;;;;;;;4.41;100.00;101543.59;5009303;28;20034;-66
2022/11/14 02:18:39;;;;;;;23.80;17.40;;;;;;;4.30;100.00;101548.75;5009978;28;20117;-67
2022/11/14 02:21:05;;;;;;;24.33;17.20;;;;;;;4.32;100.00;101540.94;5009928;28;20021;-67
2022/11/14 02:23:32;;;;;;;26.30;17.45;;;;;;;4.27;100.00;101534.81;5010149;28;20081;-66
2022/11/14 02:25:58;;;;;;;24.05;16.83;;;;;;;4.23;100.00;101533.97;5009614;28;20060;-66
2022/11/14 02:28:24;;;;;;;24.52;17.38;;;;;;;4.21;100.00;101514.81;5010038;28;20057;-66
2022/11/14 02:30:49;;;;;;;29.42;17.35;;;;;;;4.21;100.00;101524.38;5007918;28;20033;-65
2022/11/14 02:33:14;;;;;;;27.77;17.55;;;;;;;4.28;100.00;101526.16;5007023;28;20120;-67
2022/11/14 02:35:40;;;;;;;27.38;17.63;;;;;;;4.28;100.00;101523.53;5007985;28;20129;-66
2022/11/14 02:38:05;;;;;;;27.80;18.10;;;;;;;4.21;100.00;101524.38;5007858;28;20485;-66
2022/11/14 02:40:31;;;;;;;24.75;17.52;;;;;;;4.17;100.00;101521.78;5009286;28;20476;-66
2022/11/14 02:42:56;;;;;;;28.08;18.40;;;;;;;4.12;100.00;101520.00;5011680;28;20036;-67
2022/11/14 02:45:22;;;;;;;26.13;17.05;;;;;;;4.11;100.00;101518.25;5016238;28;20029;-66
2022/11/14 02:47:47;;;;;;;27.48;17.05;;;;;;;4.14;100.00;101518.25;5008660;28;20524;-67
2022/11/14 02:50:13;;;;;;;27.33;18.20;;;;;;;4.16;100.00;101516.53;5007564;28;20040;-65
2022/11/14 02:52:38;;;;;;;25.15;18.38;;;;;;;4.10;100.00;101521.72;5007681;28;20539;-66
2022/11/14 02:55:04;;;;;;;30.15;18.17;;;;;;;4.09;100.00;101507.81;5009024;28;20050;-66
2022/11/14 02:57:29;;;;;;;29.77;18.08;;;;;;;4.16;100.00;101506.09;5008380;28;20030;-68
2022/11/14 02:59:55;;;;;;;29.25;19.13;;;;;;;4.10;100.00;101500.88;5008825;28;20539;-67
2022/11/14 03:02:20;;;;;;;29.98;18.70;;;;;;;4.12;100.00;101497.38;5009043;28;20513;-67
2022/11/14 03:04:46;;;;;;;28.83;17.70;;;;;;;4.09;100.00;101499.13;5009215;28;20085;-65
2022/11/14 03:07:11;;;;;;;28.60;19.30;;;;;;;4.04;100.00;101494.75;5007824;28;20480;-65
2022/11/14 03:09:36;;;;;;;33.55;19.27;;;;;;;3.96;100.00;101483.44;5008696;28;20045;-66
2022/11/14 03:12:02;;;;;;;30.70;19.58;;;;;;;4.04;100.00;101491.28;5023259;28;20037;-66
2022/11/14 03:14:30;;;;;;;26.67;18.33;;;;;;;4.03;100.00;101479.09;5028866;28;20468;-66
2022/11/14 03:16:55;;;;;;;32.90;20.48;;;;;;;3.97;100.00;101485.16;5027296;28;20025;-66
2022/11/14 03:19:20;;;;;;;33.70;18.48;;;;;;;4.02;100.00;101473.03;5028960;28;20082;-65
2022/11/14 03:21:46;;;;;;;31.45;19.33;;;;;;;4.01;100.00;101481.69;5020442;28;20141;-65
2022/11/14 03:24:11;;;;;;;31.05;18.92;;;;;;;3.95;100.00;101478.19;5008804;28;20022;-66
2022/11/14 03:26:37;;;;;;;32.67;19.25;;;;;;;3.92;100.00;101476.47;5008165;28;20022;-66
2022/11/14 03:29:02;;;;;;;32.22;20.25;;;;;;;3.99;100.00;101478.22;5008117;28;20127;-66
2022/11/14 03:31:28;;;;;;;33.17;20.13;;;;;;;3.97;100.00;101474.72;5007672;28;20112;-67
2022/11/14 03:33:53;;;;;;;32.67;20.35;;;;;;;3.95;100.00;101476.47;5008345;28;20064;-66
2022/11/14 03:36:19;;;;;;;33.00;20.83;;;;;;;3.90;100.00;101486.88;5008489;28;20034;-67
2022/11/14 03:38:44;;;;;;;39.60;21.40;;;;;;;3.90;100.00;101483.41;5008392;28;20029;-66
2022/11/14 03:41:09;;;;;;;35.00;21.67;;;;;;;3.96;100.00;101486.03;5008568;28;20537;-66
2022/11/14 03:43:35;;;;;;;34.35;21.08;;;;;;;3.97;100.00;101487.75;5008927;28;20053;-65
2022/11/14 03:46:01;;;;;;;37.58;21.15;;;;;;;3.96;100.00;101488.63;5007555;28;20108;-68
2022/11/14 03:48:27;;;;;;;33.20;20.83;;;;;;;3.89;100.00;101482.50;5007001;28;20109;-66
2022/11/14 03:50:53;;;;;;;35.72;20.42;;;;;;;3.86;100.00;101484.25;5023730;28;20017;-66
2022/11/14 03:53:18;;;;;;;35.55;21.33;;;;;;;3.84;100.00;101476.41;5028047;28;20432;-66
2022/11/14 03:55:44;;;;;;;42.38;20.95;;;;;;;3.80;100.00;101479.88;5028286;28;20037;-65
2022/11/14 03:58:09;;;;;;;38.17;21.33;;;;;;;3.80;100.00;101477.28;5028177;28;20508;-67
2022/11/14 04:00:35;;;;;;;40.38;21.13;;;;;;;3.80;100.00;101482.50;5028037;28;20036;-66
2022/11/14 04:03:00;;;;;;;37.92;21.15;;;;;;;3.73;100.00;101470.28;5029310;28;20032;-66
2022/11/14 04:05:25;;;;;;;32.88;19.98;;;;;;;3.66;100.00;101472.88;5028876;28;20041;-67
2022/11/14 04:07:51;;;;;;;38.95;20.83;;;;;;;3.63;100.00;101469.34;5029079;28;20511;-68
2022/11/14 04:10:17;;;;;;;45.17;23.10;;;;;;;3.61;100.00;101473.72;5025571;28;20371;-66
2022/11/14 04:12:49;;;;;;;36.20;22.23;;;;;;;3.61;100.00;101476.31;5028635;28;20065;-66
2022/11/14 04:15:15;;;;;;;46.22;22.88;;;;;;;3.53;100.00;101471.06;5025755;28;20025;-67
2022/11/14 04:17:41;;;;;;;40.33;22.25;;;;;;;3.52;100.00;101458.88;5010993;28;20052;-66
2022/11/14 04:20:07;;;;;;;42.92;23.08;;;;;;;3.55;100.00;101458.88;5028718;28;20456;-66
2022/11/14 04:22:32;;;;;;;39.72;22.50;;;;;;;3.52;100.00;101458.88;5029003;28;20117;-66
2022/11/14 04:24:57;;;;;;;37.65;21.48;;;;;;;3.58;100.00;101447.63;5028548;28;20025;-66
2022/11/14 04:27:23;;;;;;;44.85;23.50;;;;;;;3.54;100.00;101444.13;5028485;28;20090;-66
2022/11/14 04:29:48;;;;;;;43.20;23.30;;;;;;;3.55;100.00;101440.66;5028030;28;20017;-67
2022/11/14 04:32:13;;;;;;;44.53;24.48;;;;;;;3.50;100.00;101450.19;5026472;28;20459;-66
2022/11/14 04:34:39;;;;;;;41.67;23.48;;;;;;;3.51;100.00;101439.78;5020739;28;20050;-66
2022/11/14 04:37:04;;;;;;;42.15;22.25;;;;;;;3.46;100.00;101451.03;5008082;28;20030;-66
2022/11/14 04:39:29;;;;;;;48.00;24.50;;;;;;;3.36;100.00;101437.06;5024702;28;20483;-67
2022/11/14 04:41:54;;;;;;;47.60;24.27;;;;;;;3.46;100.00;101435.41;5028127;28;20371;-67
2022/11/14 04:44:20;;;;;;;44.95;24.08;;;;;;;3.44;100.00;101438.00;5013681;28;20022;-67
2022/11/14 04:46:45;;;;;;;49.50;24.23;;;;;;;3.35;100.00;101432.72;5008615;28;20108;-66
2022/11/14 04:49:10;;;;;;;53.00;24.90;;;;;;;3.38;100.00;101431.03;5008225;28;20514;-67
2022/11/14 04:51:36;;;;;;;46.45;24.25;;;;;;;3.35;100.00;101435.34;5007439;28;20520;-65
2022/11/14 04:54:01;;;;;;;49.25;25.58;;;;;;;3.37;100.00;101429.25;5008405;28;20029;-66
2022/11/14 04:56:28;;;;;;;43.83;24.73;;;;;;;3.31;100.00;101425.78;5008483;28;20373;-65
2022/11/14 04:58:53;;;;;;;47.85;24.27;;;;;;;3.29;100.00;101429.22;5009190;28;20026;-64
2022/11/14 05:01:18;;;;;;;50.55;26.30;;;;;;;3.26;100.00;101429.22;5007293;28;20036;-66
2022/11/14 05:03:44;;;;;;;51.08;26.15;;;;;;;3.23;100.00;101418.78;5008273;28;20068;-65
2022/11/14 05:06:09;;;;;;;53.47;26.25;;;;;;;3.22;100.00;101418.78;5007810;28;20640;-65
2022/11/14 05:08:35;;;;;;;52.97;25.75;;;;;;;3.22;100.00;101408.34;5007479;28;20029;-66
2022/11/14 05:11:00;;;;;;;55.55;27.20;;;;;;;3.17;100.00;101403.13;5007183;28;20026;-66
2022/11/14 05:13:25;;;;;;;53.90;26.98;;;;;;;3.24;100.00;101404.88;5009190;28;20358;-67
2022/11/14 05:15:51;;;;;;;48.78;25.80;;;;;;;3.20;100.00;101400.53;5009534;28;20088;-66
2022/11/14 05:18:16;;;;;;;60.80;25.90;;;;;;;3.20;100.00;101386.63;5009876;28;20018;-66
2022/11/14 05:20:42;;;;;;;55.47;28.40;;;;;;;3.16;100.00;101396.16;5009610;28;20070;-67
2022/11/14 05:23:18;;;;;;;63.47;28.17;;;;;;;3.10;100.00;101389.16;4992349;28;20026;-67
2022/11/14 05:25:43;;;;;;;57.75;27.15;;;;;;;3.13;100.00;101390.94;5007048;28;20555;-66
2022/11/14 05:28:09;;;;;;;60.17;28.55;;;;;;;3.13;100.00;101396.16;5009488;28;20038;-66
2022/11/14 05:30:34;;;;;;;61.10;29.67;;;;;;;3.02;100.00;101389.16;5006208;28;20022;-66
2022/11/14 05:32:59;;;;;;;60.40;28.08;;;;;;;3.05;100.00;101390.00;5006314;28;20373;-66
2022/11/14 05:35:25;;;;;;;57.70;27.58;;;;;;;3.07;100.00;101393.50;5008395;28;20472;-66
2022/11/14 05:37:50;;;;;;;54.20;27.23;;;;;;;3.01;100.00;101387.38;5008098;28;20427;-67
2022/11/14 05:40:17;;;;;;;60.55;29.50;;;;;;;3.01;100.00;101382.19;5004371;28;20030;-66
2022/11/14 05:42:43;;;;;;;62.83;27.80;;;;;;;3.02;100.00;101383.94;5005923;28;20022;-66
2022/11/14 05:45:09;;;;;;;59.90;28.88;;;;;;;3.00;100.00;101380.44;5012570;28;20084;-67
2022/11/14 05:47:34;;;;;;;62.92;29.27;;;;;;;2.97;100.00;101375.22;5011890;28;20018;-66
2022/11/14 05:49:59;;;;;;;61.05;28.85;;;;;;;2.96;100.00;101377.81;5012005;28;20491;-66
2022/11/14 05:52:24;;;;;;;61.75;29.35;;;;;;;3.00;100.00;101379.56;5010607;28;20026;-67
2022/11/14 05:54:50;;;;;;;64.85;29.77;;;;;;;3.00;100.00;101374.34;5012896;28;20459;-66
2022/11/14 05:57:15;;;;;;;66.78;28.65;;;;;;;2.96;100.00;101370.88;5012173;28;20598;-66
2022/11/14 05:59:40;;;;;;;57.72;27.42;;;;;;;2.96;100.00;101372.59;5010668;28;20685;-67
2022/11/14 06:02:06;;;;;;;63.00;28.58;;;;;;;2.92;100.00;101369.09;5009884;28;20048;-65
2022/11/14 06:04:31;;;;;;;63.13;28.92;;;;;;;2.93;100.00;101373.47;5011118;28;20066;-66
2022/11/14 06:06:56;;;;;;;61.88;29.15;;;;;;;2.93;100.00;101368.25;5010732;28;20054;-65
2022/11/14 06:09:22;;;;;;;66.55;31.13;;;;;;;2.94;100.00;101372.59;5012420;28;20558;-65
2022/11/14 06:11:47;;;;;;;67.07;29.70;;;;;;;2.97;100.00;101375.22;5011269;28;20373;-66
2022/11/14 06:14:12;;;;;;;68.63;27.88;;;;;;;2.97;100.00;101379.53;5010262;28;20067;-66
2022/11/14 06:16:38;;;;;;;68.50;29.83;;;;;;;2.99;100.00;101377.81;5010416;28;20052;-65
2022/11/14 06:19:04;;;;;;;63.85;28.40;;;;;;;2.97;100.00;101374.34;5010270;28;20032;-65
2022/11/14 06:21:29;;;;;;;60.85;28.67;;;;;;;2.96;100.00;101383.00;5010886;28;20029;-66
2022/11/14 06:23:55;;;;;;;62.95;29.13;;;;;;;2.94;100.00;101383.00;5010685;28;20465;-68
2022/11/14 06:26:31;;;;;;;63.78;28.83;;;;;;;2.93;100.00;101378.66;5011503;28;20030;-67
2022/11/14 06:28:57;;;;;;;66.80;30.02;;;;;;;2.95;100.00;101379.53;5009312;28;20026;-67
2022/11/14 06:31:24;;;;;;;68.68;29.10;;;;;;;2.95;100.00;101384.72;5009290;28;20026;-64
2022/11/14 06:33:49;;;;;;;63.53;29.38;;;;;;;2.94;100.00;101380.41;5008277;28;20034;-67
2022/11/14 06:36:15;;;;;;;68.15;29.15;;;;;;;2.94;100.00;101375.19;4998951;28;20388;-67
2022/11/14 06:38:41;;;;;;;61.00;30.05;;;;;;;2.95;100.00;101374.31;4990343;28;20030;-65
2022/11/14 06:41:09;;;;;;;62.90;28.75;;;;;;;2.95;100.00;101374.31;5008835;28;20034;-67
2022/11/14 06:43:36;;;;;;;66.70;28.27;;;;;;;2.94;100.00;101375.19;5013760;28;20639;-66
2022/11/14 06:46:03;;;;;;;66.05;28.80;;;;;;;2.97;100.00;101369.13;5005317;28;20036;-66
2022/11/14 06:48:29;;;;;;;61.25;28.27;;;;;;;2.96;100.00;101368.28;4999031;28;20041;-66
2022/11/14 06:50:55;;;;;;;60.60;27.63;;;;;;;2.99;100.00;101372.63;5002097;28;20668;-68
2022/11/14 06:53:21;;;;;;;62.60;29.20;;;;;;;3.00;100.00;101375.22;5011458;28;20392;-66
2022/11/14 06:56:05;;;;;;;67.50;29.48;;;;;;;3.02;100.00;101383.06;5013255;28;20055;-64
2022/11/14 06:58:33;;;;;;;67.93;29.50;;;;;;;3.02;100.00;101385.66;5030285;28;20070;-66
2022/11/14 07:01:06;;;;;;;56.47;27.58;;;;;;;3.03;100.00;101383.06;5029054;28;20029;-66
2022/11/14 07:03:31;;;;;;;55.45;27.40;;;;;;;3.06;100.00;101378.72;5029284;28;20025;-67
2022/11/14 07:05:58;;;;;;;70.97;29.77;;;;;;;3.10;100.00;101385.72;5028944;28;20787;-66
2022/11/14 07:08:23;;;;;;;65.75;29.48;;;;;;;3.15;100.00;101376.19;5030573;28;20045;-65
2022/11/14 07:10:48;;;;;;;60.63;28.23;;;;;;;3.19;100.00;101384.91;5010966;28;20373;-64
2022/11/14 07:13:14;;;;;;;67.80;28.27;;;;;;;3.26;100.00;101376.25;5007458;28;20065;-66
2022/11/14 07:15:39;;;;;;;65.97;28.17;;;;;;;3.28;100.00;101374.50;5007311;28;20033;-65
2022/11/14 07:18:04;;;;;;;65.82;28.02;;;;;;;3.30;100.00;101378.00;4991787;28;20041;-65
2022/11/14 07:20:30;;;;;;;65.88;27.70;;;;;;;3.34;100.00;101378.91;5007524;28;20088;-67
2022/11/14 07:22:55;;;;;;;63.67;27.27;;;;;;;3.39;100.00;101371.97;5009544;28;20105;-68
2022/11/14 07:25:22;;;;;;;71.15;28.10;;;;;;;3.39;100.00;101365.03;5000426;28;20440;-66
2022/11/14 07:27:47;;;;;;;73.00;29.27;;;;;;;3.42;100.00;101361.56;4995459;28;20014;-66
2022/11/14 07:30:13;;;;;;;69.07;30.13;;;;;;;3.47;100.00;101364.19;5005140;28;20384;-66
2022/11/14 07:32:38;;;;;;;71.30;29.38;;;;;;;3.49;100.00;101359.88;5009792;28;20056;-66
2022/11/14 07:35:04;;;;;;;76.75;30.88;;;;;;;3.55;100.00;101359.88;5008819;28;20353;-66
2022/11/14 07:37:29;;;;;;;69.47;28.60;;;;;;;3.59;100.00;101359.03;5009236;28;20026;-67
2022/11/14 07:39:54;;;;;;;70.15;28.85;;;;;;;3.62;100.00;101365.97;5008795;28;20034;-67
2022/11/14 07:42:20;;;;;;;59.20;28.25;;;;;;;3.67;100.00;101366.84;5009531;28;20075;-66
2022/11/14 07:44:45;;;;;;;61.88;28.05;;;;;;;3.67;100.00;101364.25;4999389;28;20041;-66
2022/11/14 07:47:10;;;;;;;74.00;30.48;;;;;;;3.64;100.00;101361.63;4989450;28;20461;-69
2022/11/14 07:49:36;;;;;;;67.40;30.40;;;;;;;3.73;100.00;101372.09;4989343;28;20034;-67
2022/11/14 07:52:01;;;;;;;66.93;30.48;;;;;;;3.68;100.00;101366.00;4989314;28;20022;-66
2022/11/14 07:54:26;;;;;;;63.65;29.15;;;;;;;3.69;100.00;101359.91;4990938;28;20054;-66
2022/11/14 07:56:52;;;;;;;67.40;29.30;;;;;;;3.78;100.00;101362.56;5009596;28;20060;-65
2022/11/14 07:59:17;;;;;;;60.65;27.45;;;;;;;3.78;100.00;101364.28;5008576;28;20025;-63
2022/11/14 08:01:42;;;;;;;64.35;29.42;;;;;;;3.71;100.00;101358.19;5008133;28;20052;-67
2022/11/14 08:04:09;;;;;;;67.05;28.95;;;;;;;3.81;100.00;101358.22;5008786;28;20522;-66
2022/11/14 08:06:34;;;;;;;67.35;28.95;;;;;;;3.73;100.00;101346.03;4999632;28;20065;-66
2022/11/14 08:08:59;;;;;;;67.90;29.75;;;;;;;3.84;100.00;101347.78;4998691;28;20045;-65
2022/11/14 08:14:09;;;;;;;57.95;27.08;;;;;;;3.86;100.00;101348.69;4999657;28;20095;-66
2022/11/14 08:16:34;;;;;;;64.68;29.27;;;;;;;3.91;100.00;101344.31;5007266;28;20116;-66
2022/11/14 08:19:00;;;;;;;63.72;28.83;;;;;;;3.99;100.00;101342.63;5007679;28;20407;-67
2022/11/14 08:21:25;;;;;;;57.15;27.48;;;;;;;4.09;100.00;101343.50;5004697;28;20499;-66
2022/11/14 08:23:50;;;;;;;54.58;27.17;;;;;;;4.22;100.00;101349.59;4999667;28;20053;-66
2022/11/14 08:26:16;;;;;;;57.97;27.58;;;;;;;4.24;100.00;101342.63;4997863;28;20381;-65
2022/11/14 08:28:41;;;;;;;58.05;27.17;;;;;;;4.27;100.00;101346.97;5001709;28;20432;-68
2022/11/14 08:31:06;;;;;;;51.75;26.52;;;;;;;4.32;100.00;101346.97;5002011;28;20022;-72
2022/11/14 08:33:32;;;;;;;51.47;25.83;;;;;;;4.36;100.00;101344.38;4999427;28;20106;-66
2022/11/14 08:36:05;;;;;;;57.78;26.58;;;;;;;4.27;100.00;101337.44;4996405;28;20105;-66
2022/11/14 08:38:31;;;;;;;51.22;25.25;;;;;;;4.39;100.00;101338.28;4999103;28;20520;-66
2022/11/14 08:40:58;;;;;;;51.40;25.50;;;;;;;4.38;100.00;101329.59;4996850;28;20585;-68
2022/11/14 08:43:24;;;;;;;56.13;25.75;;;;;;;4.49;100.00;101319.13;5001379;28;20103;-65
2022/11/14 08:45:49;;;;;;;50.88;25.55;;;;;;;4.51;100.00;101316.53;5004681;28;20077;-65
2022/11/14 08:48:14;;;;;;;47.10;24.55;;;;;;;4.55;100.00;101313.06;5002762;28;20026;-66
2022/11/14 08:50:40;;;;;;;48.97;25.65;;;;;;;4.69;100.00;101315.66;5007192;28;20038;-67
2022/11/14 08:53:05;;;;;;;46.10;26.08;;;;;;;4.73;100.00;101317.38;5004604;28;20546;-66
2022/11/14 08:55:30;;;;;;;46.38;24.80;;;;;;;4.72;100.00;101312.19;5005194;28;20489;-65
2022/11/14 08:57:56;;;;;;;45.45;24.25;;;;;;;4.87;100.00;101308.63;5001544;28;20488;-68
2022/11/14 09:00:21;;;;;;;43.15;23.88;;;;;;;4.95;100.00;101299.06;5001475;28;20034;-64
2022/11/14 09:02:46;;;;;;;47.58;25.00;;;;;;;5.01;100.00;101304.28;5005580;28;20099;-67
2022/11/14 09:05:12;;;;;;;40.40;23.60;;;;;;;5.11;100.00;101309.44;5003384;28;20053;-66
2022/11/14 09:07:37;;;;;;;44.20;22.98;;;;;;;5.13;100.00;101302.47;4995464;28;20030;-64
2022/11/14 09:10:03;;;;;;;40.13;23.23;;;;;;;5.13;100.00;101298.13;4997759;28;20033;-67
2022/11/14 09:12:28;;;;;;;43.45;23.63;;;;;;;5.26;100.00;101298.94;5007311;28;20029;-65
2022/11/14 09:14:54;;;;;;;50.60;23.65;;;;;;;5.25;100.00;101297.22;5007431;28;20026;-67
2022/11/14 09:17:19;;;;;;;39.15;22.80;;;;;;;5.34;100.00;101298.03;5005066;28;20021;-65
2022/11/14 09:19:44;;;;;;;42.42;22.35;;;;;;;5.47;100.00;101297.09;5011562;28;20036;-65
2022/11/14 09:22:10;;;;;;;40.30;21.27;;;;;;;5.55;100.00;101295.34;5011438;28;20036;-65
2022/11/14 09:24:35;;;;;;;38.95;21.63;;;;;;;5.63;100.00;101299.66;5010014;28;20049;-64
2022/11/14 09:27:00;;;;;;;44.30;22.08;;;;;;;5.56;100.00;101302.28;5011551;28;20610;-65
2022/11/14 09:29:26;;;;;;;32.90;20.83;;;;;;;5.54;100.00;101298.81;5009785;28;20052;-65
2022/11/14 09:31:52;;;;;;;41.10;21.85;;;;;;;5.50;100.00;101289.25;5010389;28;20026;-66
2022/11/14 09:34:17;;;;;;;36.30;21.00;;;;;;;5.63;100.00;101291.81;5011038;28;20022;-65
2022/11/14 09:36:43;;;;;;;36.38;20.92;;;;;;;5.65;100.00;101284.78;5008161;28;20044;-67
2022/11/14 09:39:08;;;;;;;33.92;20.00;;;;;;;5.80;100.00;101289.06;4996771;28;20078;-66
2022/11/14 09:41:39;;;;;;;34.17;20.67;;;;;;;5.86;100.00;101286.41;4995230;28;20173;-65
2022/11/14 09:44:23;;;;;;;35.90;21.27;;;;;;;5.96;100.00;101287.19;4996612;28;20030;-68
2022/11/14 09:46:56;;;;;;;33.97;19.73;;;;;;;5.99;100.00;101289.78;4999588;28;20699;-64
2022/11/14 09:49:28;;;;;;;34.50;19.60;;;;;;;6.13;100.00;101287.13;5001528;28;20472;-63
2022/11/14 09:52:02;;;;;;;32.45;20.02;;;;;;;6.17;100.00;101282.75;5000452;28;20622;-68
2022/11/14 09:54:35;;;;;;;31.35;19.20;;;;;;;6.12;100.00;101280.16;4995779;28;20078;-64
2022/11/14 09:57:00;;;;;;;29.00;19.00;;;;;;;6.28;100.00;101280.88;4992714;28;20480;-64
2022/11/14 09:59:25;;;;;;;34.60;18.52;;;;;;;6.36;100.00;101279.94;5008006;28;20045;-67
2022/11/14 10:02:19;;;;;;;27.42;17.73;;;;;;;6.41;100.00;101279.00;5007994;28;20053;-64
2022/11/14 10:05:10;;;;;;;27.83;17.73;;;;;;;6.53;100.00;101270.19;5009685;28;20057;-65
2022/11/14 10:07:43;;;;;;;24.67;15.77;;;;;;;6.62;100.00;101263.97;5015223;28;20034;-65
2022/11/14 10:10:19;;;;;;;28.42;17.25;;;;;;;6.66;100.00;101263.09;5000364;28;20084;-64
2022/11/14 10:13:22;;;;;;;24.77;16.05;;;;;;;6.75;100.00;101246.41;5009915;28;20053;-63
2022/11/14 10:16:09;;;;;;;26.38;16.52;;;;;;;6.93;100.00;101247.06;5008164;28;20048;-66
2022/11/14 10:18:43;;;;;;;25.85;15.40;;;;;;;6.89;100.00;101240.97;5000555;28;20033;-67
2022/11/14 10:21:46;;;;;;;25.00;14.93;;;;;;;6.98;100.00;101242.63;4983524;28;20049;-66
2022/11/14 10:24:17;;;;;;;18.95;13.95;;;;;;;7.16;100.00;101238.03;4993583;28;20054;-67
2022/11/14 10:27:03;;;;;;;22.58;14.65;;;;;;;7.25;100.00;101248.38;4989617;28;20052;-65
2022/11/14 10:29:34;;;;;;;21.58;14.38;;;;;;;7.31;100.00;101243.06;4987569;28;20118;-66
2022/11/14 10:32:26;;;;;;;21.55;14.32;;;;;;;7.36;100.00;101255.25;4990677;28;20089;-65
2022/11/14 10:35:03;;;;;;;24.35;15.43;;;;;;;7.51;100.00;101251.53;4980394;28;20038;-65
2022/11/14 10:37:43;;;;;;;26.48;14.23;;;;;;;7.57;100.00;101247.09;5006900;28;20034;-67
2022/11/14 10:40:25;;;;;;;19.63;14.55;;;;;;;7.62;100.00;101251.38;5008107;28;20597;-65
2022/11/14 10:42:56;;;;;;;20.45;13.52;;;;;;;7.79;100.00;101253.75;5007436;28;20034;-67
2022/11/14 10:45:27;;;;;;;24.27;14.52;;;;;;;7.77;100.00;101250.28;5008328;28;20032;-65
2022/11/14 10:47:59;;;;;;;21.40;13.82;;;;;;;7.80;100.00;101248.47;5009963;28;20033;-66
2022/11/14 10:50:32;;;;;;;20.73;13.55;;;;;;;7.96;100.00;101240.38;5008793;28;20563;-68
2022/11/14 10:53:00;;;;;;;20.38;14.02;;;;;;;8.01;100.00;101235.03;4971908;28;20018;-65
2022/11/14 10:55:25;;;;;;;22.05;13.82;;;;;;;7.93;100.00;101229.91;4989217;28;20466;-65
2022/11/14 10:57:51;;;;;;;16.15;12.23;;;;;;;8.10;100.00;101227.03;4988295;28;20045;-63
2022/11/14 11:00:21;;;;;;;19.02;11.82;;;;;;;8.26;100.00;101224.97;4987964;28;20073;-65
2022/11/14 11:02:55;;;;;;;18.48;12.18;;;;;;;8.33;100.00;101213.47;4990247;28;20043;-66
2022/11/14 11:05:23;;;;;;;19.58;12.98;;;;;;;8.42;100.00;101216.81;5010258;28;20141;-65
2022/11/14 11:13:32;;;;;;;17.33;11.43;;;;;;;8.77;100.00;101202.16;5008840;28;20720;-64
2022/11/14 11:15:59;;;;;;;15.70;11.10;;;;;;;8.91;100.00;101199.22;5008599;28;20346;-67
2022/11/14 11:18:32;;;;;;;14.98;11.40;;;;;;;9.00;100.00;101192.91;5007598;28;20006;-66